createdAt,value
2018-10-12T00:02:06.741Z,101270.04
2018-10-12T00:04:38.304Z,101279.69
2018-10-12T00:07:08.484Z,101276.30
2018-10-12T00:09:38.559Z,101295.92
2018-10-12T00:12:13.540Z,101308.21
2018-10-12T00:14:45.375Z,101316.73
2018-10-12T00:17:15.521Z,101341.52
2018-10-12T00:19:44.561Z,101343.20
2018-10-12T00:22:14.289Z,101339.73
2018-10-12T00:24:44.123Z,101357.44
2018-10-12T00:27:13.945Z,101355.77
2018-10-12T00:29:45.781Z,101362.97
2018-10-12T00:32:17.337Z,101370.38
2018-10-12T00:34:50.376Z,101371.66
2018-10-12T00:37:20.316Z,101361.75
2018-10-12T00:39:52.770Z,101363.38
2018-10-12T00:42:23.420Z,101366.45
2018-10-12T00:44:55.348Z,101376.30
2018-10-12T00:47:26.420Z,101374.83
2018-10-12T00:49:56.795Z,101376.56
2018-10-12T00:52:28.447Z,101367.90
2018-10-12T00:55:01.107Z,101371.50
2018-10-12T00:57:32.249Z,101374.62
2018-10-12T01:00:02.171Z,101372.98
2018-10-12T01:02:32.565Z,101377.44
2018-10-12T01:05:02.613Z,101383.58
2018-10-12T01:07:33.127Z,101387.13
2018-10-12T01:10:03.310Z,101395.29
2018-10-12T01:12:34.689Z,101394.28
2018-10-12T01:15:05.112Z,101392.20
2018-10-12T01:17:35.131Z,101397.31
2018-10-12T01:20:04.947Z,101394.61
2018-10-12T01:22:33.925Z,101409.94
2018-10-12T01:25:04.029Z,101409.22
2018-10-12T01:27:33.606Z,101400.52
2018-10-12T01:30:03.518Z,101390.66
2018-10-12T01:32:38.141Z,101406.09
2018-10-12T01:35:07.147Z,101407.63
2018-10-12T01:37:36.501Z,101419.63
2018-10-12T01:40:06.005Z,101412.97
2018-10-12T01:42:34.712Z,101418.48
2018-10-12T01:45:03.648Z,101417.16
2018-10-12T01:47:32.464Z,101425.91
2018-10-12T01:50:02.115Z,101423.27
2018-10-12T01:52:30.939Z,101423.00
2018-10-12T01:54:59.826Z,101425.75
2018-10-12T01:57:28.660Z,101424.77
2018-10-12T01:59:57.499Z,101425.58
2018-10-12T02:02:26.223Z,101427.45
2018-10-12T02:04:55.049Z,101424.86
2018-10-12T02:07:23.817Z,101431.18
2018-10-12T02:09:52.990Z,101434.52
2018-10-12T02:12:23.033Z,101440.94
2018-10-12T02:14:52.085Z,101447.44
2018-10-12T02:17:20.819Z,101458.62
2018-10-12T02:19:49.710Z,101464.73
2018-10-12T02:22:18.538Z,101459.84
2018-10-12T02:24:48.319Z,101464.14
2018-10-12T02:27:17.192Z,101466.94
2018-10-12T02:29:45.989Z,101464.30
2018-10-12T02:32:14.697Z,101469.97
2018-10-12T02:34:43.507Z,101463.69
2018-10-12T02:37:12.374Z,101471.25
2018-10-12T02:39:41.230Z,101472.39
2018-10-12T02:42:17.012Z,101486.93
2018-10-12T02:44:45.864Z,101481.59
2018-10-12T02:47:14.882Z,101490.38
2018-10-12T02:49:43.723Z,101483.12
2018-10-12T02:52:12.777Z,101485.89
2018-10-12T02:54:41.675Z,101494.20
2018-10-12T02:57:10.927Z,101489.34
2018-10-12T02:59:39.772Z,101486.11
2018-10-12T03:02:08.604Z,101490.55
2018-10-12T03:04:37.676Z,101497.16
2018-10-12T03:07:08.040Z,101383.66
2018-10-12T03:09:41.520Z,101502.32
2018-10-12T03:12:12.670Z,101501.23
2018-10-12T03:14:44.976Z,101505.76
2018-10-12T03:17:17.520Z,101513.58
2018-10-12T03:19:49.341Z,101510.28
2018-10-12T03:22:23.615Z,101515.49
2018-10-12T03:24:59.563Z,101518.89
2018-10-12T03:27:30.117Z,101520.16
2018-10-12T03:29:59.957Z,101517.69
2018-10-12T03:32:31.561Z,101523.66
2018-10-12T03:35:05.022Z,101519.48
2018-10-12T03:37:33.993Z,101520.72
2018-10-12T03:40:02.927Z,101524.38
2018-10-12T03:42:32.845Z,101525.72
2018-10-12T03:45:01.874Z,101533.36
2018-10-12T03:47:31.548Z,101535.61
2018-10-12T03:50:01.591Z,101549.30
2018-10-12T03:52:31.736Z,101552.52
2018-10-12T03:55:04.509Z,101555.62
2018-10-12T03:57:34.618Z,101560.96
2018-10-12T04:00:04.239Z,101564.38
2018-10-12T04:02:33.949Z,101568.20
2018-10-12T04:05:05.098Z,101567.27
2018-10-12T04:07:34.907Z,101568.94
2018-10-12T04:10:08.860Z,101567.07
2018-10-12T04:12:38.452Z,101572.59
2018-10-12T04:15:08.682Z,101573.27
2018-10-12T04:17:37.595Z,101581.91
2018-10-12T04:20:07.180Z,101583.05
2018-10-12T04:22:37.680Z,101599.06
2018-10-12T04:25:09.819Z,101596.91
2018-10-12T04:27:39.335Z,101599.68
2018-10-12T04:30:08.611Z,101598.47
2018-10-12T04:32:37.563Z,101597.63
2018-10-12T04:35:07.692Z,101603.45
2018-10-12T04:37:36.625Z,101604.70
2018-10-12T04:41:18.873Z,101601.69
2018-10-12T04:43:49.183Z,101603.80
2018-10-12T04:46:21.980Z,101606.48
2018-10-12T04:48:53.196Z,101612.83
2018-10-12T04:51:29.076Z,101613.31
2018-10-12T04:54:04.383Z,101619.17
2018-10-12T04:56:33.379Z,101615.31
2018-10-12T04:59:02.432Z,101616.87
2018-10-12T05:01:33.083Z,101618.47
2018-10-12T05:04:02.128Z,101619.48
2018-10-12T05:06:31.191Z,101627.98
2018-10-12T05:09:00.963Z,101632.87
2018-10-12T05:11:30.715Z,101635.42
2018-10-12T05:14:01.326Z,101635.78
2018-10-12T05:16:31.958Z,101651.44
2018-10-12T05:19:01.708Z,101650.59
2018-10-12T05:21:32.902Z,101652.61
2018-10-12T05:24:02.865Z,101654.22
2018-10-12T05:26:31.831Z,101659.58
2018-10-12T05:29:01.580Z,101658.56
2018-10-12T05:31:30.671Z,101680.00
2018-10-12T05:33:59.666Z,101676.65
2018-10-12T05:36:28.781Z,101681.12
2018-10-12T05:38:57.862Z,101693.97
2018-10-12T05:41:27.039Z,101686.30
2018-10-12T05:43:56.809Z,101691.03
2018-10-12T05:46:27.489Z,101694.26
2018-10-12T05:49:14.369Z,101701.81
2018-10-12T05:51:46.002Z,101708.79
2018-10-12T05:54:15.713Z,101709.98
2018-10-12T05:56:47.589Z,101716.78
2018-10-12T05:59:16.697Z,101714.23
2018-10-12T06:01:46.742Z,101710.58
2018-10-12T06:04:15.752Z,101713.01
2018-10-12T06:06:46.542Z,101716.78
2018-10-12T06:09:16.123Z,101720.11
2018-10-12T06:11:46.549Z,101728.39
2018-10-12T06:14:18.333Z,101741.00
2018-10-12T06:16:47.463Z,101746.05
2018-10-12T06:19:17.902Z,101750.46
2018-10-12T06:21:48.685Z,101752.95
2018-10-12T06:24:19.064Z,101756.29
2018-10-12T06:26:49.751Z,101757.11
2018-10-12T06:29:19.737Z,101764.17
2018-10-12T06:31:50.857Z,101760.16
2018-10-12T06:34:21.262Z,101764.23
2018-10-12T06:36:50.213Z,101771.50
2018-10-12T06:39:20.413Z,101779.32
2018-10-12T06:41:50.144Z,101779.71
2018-10-12T06:44:18.985Z,101776.98
2018-10-12T06:46:51.991Z,101779.63
2018-10-12T06:51:57.948Z,101780.98
2018-10-12T06:54:28.869Z,101782.27
2018-10-12T06:56:58.498Z,101784.59
2018-10-12T06:59:28.748Z,101785.75
2018-10-12T07:01:58.756Z,101781.98
2018-10-12T07:04:29.251Z,101777.91
2018-10-12T07:06:59.096Z,101785.23
2018-10-12T07:09:31.300Z,101784.95
2018-10-12T07:12:00.306Z,101783.67
2018-10-12T07:14:30.531Z,101786.84
2018-10-12T07:17:00.198Z,101791.20
2018-10-12T07:19:29.164Z,101798.88
2018-10-12T07:21:58.827Z,101798.09
2018-10-12T07:24:29.051Z,101807.93
2018-10-12T07:26:58.526Z,101804.41
2018-10-12T07:29:27.485Z,101809.73
2018-10-12T07:31:57.641Z,101808.26
2018-10-12T07:34:27.341Z,101806.27
2018-10-12T07:36:58.544Z,101809.34
2018-10-12T07:39:29.058Z,101822.01
2018-10-12T07:41:58.583Z,101816.83
2018-10-12T07:44:27.717Z,101818.94
2018-10-12T07:46:57.162Z,101826.60
2018-10-12T07:49:27.379Z,101828.31
2018-10-12T07:51:57.506Z,101827.68
2018-10-12T07:54:26.591Z,101820.30
2018-10-12T07:57:00.595Z,101825.10
2018-10-12T07:59:31.388Z,101821.20
2018-10-12T08:02:02.053Z,101826.04
2018-10-12T08:04:31.488Z,101820.66
2018-10-12T08:07:01.210Z,101827.68
2018-10-12T08:09:32.874Z,101826.64
2018-10-12T08:12:02.496Z,101821.84
2018-10-12T08:14:31.416Z,101822.11
2018-10-12T08:17:01.899Z,101827.02
2018-10-12T08:19:33.684Z,101821.14
2018-10-12T08:22:02.672Z,101823.55
2018-10-12T08:24:31.645Z,101824.09
2018-10-12T08:27:01.388Z,101825.19
2018-10-12T08:29:30.131Z,101827.34
2018-10-12T08:32:00.095Z,101834.00
2018-10-12T08:34:30.718Z,101839.05
2018-10-12T08:36:59.699Z,101841.02
2018-10-12T08:39:28.803Z,101835.32
2018-10-12T08:41:59.454Z,101838.95
2018-10-12T08:44:30.805Z,101837.73
2018-10-12T08:47:00.434Z,101839.70
2018-10-12T08:49:30.368Z,101845.61
2018-10-12T08:52:00.204Z,101836.92
2018-10-12T08:54:30.091Z,101843.75
2018-10-12T08:57:02.096Z,101839.54
2018-10-12T08:59:31.161Z,101843.86
2018-10-12T09:02:03.409Z,101845.75
2018-10-12T09:07:06.341Z,101846.03
2018-10-12T09:09:37.184Z,101851.90
2018-10-12T09:12:07.308Z,101850.45
2018-10-12T09:14:37.052Z,101854.05
2018-10-12T09:17:07.517Z,101849.95
2018-10-12T09:19:37.920Z,101844.27
2018-10-12T09:22:08.657Z,101844.88
2018-10-12T09:24:37.795Z,101840.13
2018-10-12T09:27:07.771Z,101839.31
2018-10-12T09:29:37.260Z,101834.97
2018-10-12T09:32:06.166Z,101829.19
2018-10-12T09:34:36.309Z,101831.22
2018-10-12T09:37:08.984Z,101829.55
2018-10-12T09:39:38.620Z,101834.65
2018-10-12T09:42:22.462Z,101832.59
2018-10-12T09:44:52.014Z,101835.02
2018-10-12T09:47:22.125Z,101839.00
2018-10-12T09:49:51.831Z,101834.61
2018-10-12T09:52:22.371Z,101838.28
2018-10-12T09:54:52.437Z,101843.70
2018-10-12T09:57:24.274Z,101839.87
2018-10-12T09:59:54.875Z,101837.08
2018-10-12T10:02:29.414Z,101831.60
2018-10-12T10:05:03.957Z,101830.91
2018-10-12T10:07:34.330Z,101825.33
2018-10-12T10:10:04.317Z,101832.51
2018-10-12T10:12:35.311Z,101834.44
2018-10-12T10:15:06.609Z,101837.09
2018-10-12T10:17:37.295Z,101837.70
2018-10-12T10:20:07.509Z,101832.48
2018-10-12T10:22:40.169Z,101834.81
2018-10-12T10:25:10.248Z,101837.44
2018-10-12T10:27:40.501Z,101838.91
2018-10-12T10:30:11.309Z,101843.53
2018-10-12T10:32:42.491Z,101845.38
2018-10-12T10:35:11.394Z,101850.33
2018-10-12T10:37:41.150Z,101852.28
2018-10-12T10:40:11.270Z,101851.41
2018-10-12T10:42:41.106Z,101851.86
2018-10-12T10:45:12.096Z,101846.29
2018-10-12T10:47:44.692Z,101853.27
2018-10-12T10:50:15.799Z,101850.50
2018-10-12T10:52:46.124Z,101856.33
2018-10-12T10:55:17.330Z,101857.42
2018-10-12T10:57:47.310Z,101855.57
2018-10-12T11:00:17.900Z,101853.42
2018-10-12T11:02:51.601Z,101852.69
2018-10-12T11:05:26.501Z,101844.95
2018-10-12T11:07:59.419Z,101852.42
2018-10-12T11:15:35.105Z,101855.41
2018-10-12T11:18:04.744Z,101855.69
2018-10-12T11:20:35.116Z,101852.31
2018-10-12T11:23:07.653Z,101843.00
2018-10-12T11:25:36.938Z,101852.50
2018-10-12T11:28:06.814Z,101850.53
2018-10-12T11:30:40.635Z,101844.25
2018-10-12T11:33:10.155Z,101836.91
2018-10-12T11:35:40.776Z,101837.06
2018-10-12T11:38:10.400Z,101841.58
2018-10-12T11:40:41.189Z,101847.83
2018-10-12T11:43:33.784Z,101843.52
2018-10-12T11:46:03.570Z,101838.86
2018-10-12T11:48:35.830Z,101841.81
2018-10-12T11:51:06.324Z,101838.81
2018-10-12T11:53:37.245Z,101838.31
2018-10-12T11:56:09.325Z,101839.36
2018-10-12T11:58:41.903Z,101845.98
2018-10-12T12:01:12.632Z,101850.58
2018-10-12T12:03:44.242Z,101838.54
2018-10-12T12:06:17.135Z,101831.38
2018-10-12T12:08:47.754Z,101839.11
2018-10-12T12:11:18.797Z,101836.98
2018-10-12T12:13:50.212Z,101841.27
2018-10-12T12:16:20.591Z,101843.59
2018-10-12T12:18:51.217Z,101838.16
2018-10-12T12:21:25.136Z,101827.10
2018-10-12T12:23:55.771Z,101827.79
2018-10-12T12:26:27.109Z,101831.72
2018-10-12T12:28:58.464Z,101829.44
2018-10-12T12:31:28.982Z,101829.95
2018-10-12T12:34:01.730Z,101829.08
2018-10-12T12:36:40.261Z,101828.91
2018-10-12T12:39:11.739Z,101823.76
2018-10-12T12:41:45.163Z,101833.41
2018-10-12T12:44:16.526Z,101837.19
2018-10-12T12:46:53.481Z,101835.67
2018-10-12T12:49:25.918Z,101847.25
2018-10-12T12:51:56.565Z,101838.80
2018-10-12T12:54:27.713Z,101834.53
2018-10-12T12:56:56.871Z,101831.93
2018-10-12T12:59:28.415Z,101825.50
2018-10-12T13:01:59.283Z,101835.33
2018-10-12T13:04:31.214Z,101831.70
2018-10-12T13:07:01.908Z,101831.42
2018-10-12T13:09:38.751Z,101836.22
2018-10-12T13:12:16.654Z,101831.75
2018-10-12T13:14:49.686Z,101834.45
2018-10-12T13:17:19.313Z,101821.33
2018-10-12T13:20:00.316Z,101819.98
2018-10-12T13:22:30.475Z,101824.27
2018-10-12T13:25:01.478Z,101820.34
2018-10-12T13:27:32.673Z,101827.73
2018-10-12T13:30:08.368Z,101822.79
2018-10-12T13:32:38.046Z,101822.09
2018-10-12T13:35:10.239Z,101822.70
2018-10-12T13:37:43.212Z,101825.88
2018-10-12T13:40:14.284Z,101825.05
2018-10-12T13:42:44.426Z,101827.65
2018-10-12T13:45:15.950Z,101821.78
2018-10-12T13:47:53.371Z,101817.27
2018-10-12T13:50:25.317Z,101818.12
2018-10-12T13:52:55.545Z,101815.31
2018-10-12T13:55:32.526Z,101822.11
2018-10-12T13:58:04.666Z,101820.97
2018-10-12T14:00:35.900Z,101814.95
2018-10-12T14:06:31.427Z,101815.55
2018-10-12T14:09:02.361Z,101815.53
2018-10-12T14:11:34.465Z,101813.42
2018-10-12T14:14:07.484Z,101809.34
2018-10-12T14:16:40.498Z,101812.89
2018-10-12T14:19:10.534Z,101812.66
2018-10-12T14:21:43.688Z,101814.07
2018-10-12T14:24:13.230Z,101816.31
2018-10-12T14:26:44.959Z,101816.78
2018-10-12T14:29:20.654Z,101799.55
2018-10-12T14:31:51.828Z,101811.85
2018-10-12T14:34:21.386Z,101811.50
2018-10-12T14:39:31.070Z,101810.61
2018-10-12T14:42:00.240Z,101814.44
2018-10-12T14:44:31.977Z,101812.63
2018-10-12T14:47:03.209Z,101818.67
2018-10-12T14:49:34.447Z,101813.14
2018-10-12T14:52:06.744Z,101816.73
2018-10-12T14:54:36.716Z,101819.27
2018-10-12T14:57:12.764Z,101817.33
2018-10-12T14:59:43.734Z,101814.30
2018-10-12T15:02:18.847Z,101810.30
2018-10-12T15:04:49.184Z,101819.06
2018-10-12T15:07:23.444Z,101815.02
2018-10-12T15:09:53.482Z,101824.77
2018-10-12T15:12:23.224Z,101822.58
2018-10-12T15:15:13.242Z,101823.47
2018-10-12T15:17:42.408Z,101824.31
2018-10-12T15:20:14.739Z,101823.89
2018-10-12T15:22:44.836Z,101828.30
2018-10-12T15:25:15.335Z,101820.11
2018-10-12T15:27:47.009Z,101821.39
2018-10-12T15:30:19.266Z,101821.36
2018-10-12T15:32:48.473Z,101822.61
2018-10-12T15:35:31.570Z,101815.91
2018-10-12T15:38:03.989Z,101824.97
2018-10-12T15:40:34.629Z,101819.19
2018-10-12T15:43:09.355Z,101819.05
2018-10-12T15:45:39.854Z,101813.17
2018-10-12T15:48:10.929Z,101820.02
2018-10-12T15:50:44.391Z,101812.50
2018-10-12T15:53:21.069Z,101810.38
2018-10-12T15:55:52.191Z,101807.34
2018-10-12T15:58:22.504Z,101807.44
2018-10-12T16:00:54.187Z,101809.98
2018-10-12T16:03:25.538Z,101819.08
2018-10-12T16:05:55.306Z,101822.77
2018-10-12T16:08:28.414Z,101819.09
2018-10-12T16:11:03.965Z,101819.59
2018-10-12T16:13:36.184Z,101822.02
2018-10-12T16:16:08.928Z,101821.33
2018-10-12T16:18:39.866Z,101820.00
2018-10-12T16:21:11.320Z,101823.86
2018-10-12T16:23:41.352Z,101816.16
2018-10-12T16:26:22.636Z,101825.38
2018-10-12T16:28:56.438Z,101822.70
2018-10-12T16:31:25.782Z,101721.50
2018-10-12T16:33:57.996Z,101831.61
2018-10-12T16:36:28.457Z,101831.28
2018-10-12T16:39:02.581Z,101836.17
2018-10-12T16:41:32.437Z,101837.13
2018-10-12T16:44:02.689Z,101839.02
2018-10-12T16:46:36.595Z,101836.48
2018-10-12T16:49:05.920Z,101834.52
2018-10-12T16:51:35.155Z,101837.14
2018-10-12T16:54:08.795Z,101841.96
2018-10-12T16:56:41.262Z,101839.89
2018-10-12T16:59:10.680Z,101844.67
2018-10-12T17:04:17.367Z,101848.16
2018-10-12T17:06:51.216Z,101848.69
2018-10-12T17:09:20.955Z,101852.69
2018-10-12T17:11:52.077Z,101846.28
2018-10-12T17:14:22.616Z,101856.05
2018-10-12T17:16:56.810Z,101858.99
2018-10-12T17:19:27.390Z,101862.55
2018-10-12T17:21:57.826Z,101864.97
2018-10-12T17:24:26.872Z,101855.41
2018-10-12T17:26:56.312Z,101862.19
2018-10-12T17:29:26.775Z,101857.45
2018-10-12T17:31:55.772Z,101856.27
2018-10-12T17:34:24.714Z,101852.73
2018-10-12T17:36:55.136Z,101856.73
2018-10-12T17:39:24.634Z,101853.95
2018-10-12T17:41:53.631Z,101852.39
2018-10-12T17:44:24.088Z,101855.55
2018-10-12T17:46:53.127Z,101857.98
2018-10-12T17:49:21.974Z,101860.79
2018-10-12T17:51:51.165Z,101855.92
2018-10-12T17:54:20.880Z,101861.51
2018-10-12T17:56:49.733Z,101871.47
2018-10-12T17:59:18.744Z,101868.44
2018-10-12T18:01:47.754Z,101877.02
2018-10-12T18:04:17.024Z,101872.91
2018-10-12T18:06:45.886Z,101865.42
2018-10-12T18:09:15.332Z,101870.10
2018-10-12T18:11:44.822Z,101871.31
2018-10-12T18:14:14.501Z,101878.22
2018-10-12T18:16:44.105Z,101883.53
2018-10-12T18:19:13.975Z,101885.70
2018-10-12T18:21:44.551Z,101883.88
2018-10-12T18:24:13.893Z,101890.39
2018-10-12T18:26:43.871Z,101886.41
2018-10-12T18:29:13.811Z,101891.48
2018-10-12T18:31:42.991Z,101887.36
2018-10-12T18:34:11.818Z,101893.64
2018-10-12T18:36:40.954Z,101889.06
2018-10-12T18:39:10.913Z,101889.39
2018-10-12T18:41:39.732Z,101890.13
2018-10-12T18:44:10.509Z,101895.19
2018-10-12T18:46:39.920Z,101892.14
2018-10-12T18:49:08.820Z,101892.84
2018-10-12T18:51:39.032Z,101893.66
2018-10-12T18:54:08.106Z,101894.52
2018-10-12T18:56:37.588Z,101898.42
2018-10-12T18:59:06.745Z,101897.45
2018-10-12T19:01:35.823Z,101900.24
2018-10-12T19:04:05.578Z,101896.13
2018-10-12T19:06:34.958Z,101901.20
2018-10-12T19:09:05.757Z,101903.02
2018-10-12T19:11:34.751Z,101907.09
2018-10-12T19:14:03.829Z,101900.39
2018-10-12T19:16:33.090Z,101898.77
2018-10-12T19:19:02.629Z,101901.81
2018-10-12T19:21:33.001Z,101903.52
2018-10-12T19:24:02.187Z,101902.30
2018-10-12T19:26:34.444Z,101905.75
2018-10-12T19:29:03.643Z,101910.83
2018-10-12T19:31:32.825Z,101912.53
2018-10-12T19:34:01.976Z,101921.89
2018-10-12T19:36:31.224Z,101918.39
2018-10-12T19:39:00.277Z,101918.39
2018-10-12T19:44:02.481Z,101920.83
2018-10-12T19:46:31.726Z,101914.48
2018-10-12T19:49:00.677Z,101916.19
2018-10-12T19:51:29.933Z,101920.34
2018-10-12T19:53:58.978Z,101918.54
2018-10-12T19:56:27.913Z,101922.13
2018-10-12T19:58:57.199Z,101923.62
2018-10-12T20:01:26.296Z,101922.81
2018-10-12T20:03:55.335Z,101921.00
2018-10-12T20:06:24.300Z,101929.95
2018-10-12T20:08:53.405Z,101926.89
2018-10-12T20:11:24.222Z,101926.83
2018-10-12T20:13:53.022Z,101932.52
2018-10-12T20:16:23.089Z,101929.98
2018-10-12T20:18:52.113Z,101938.45
2018-10-12T20:21:21.301Z,101941.73
2018-10-12T20:23:51.158Z,101942.48
2018-10-12T20:26:20.101Z,101938.09
2018-10-12T20:28:49.350Z,101940.23
2018-10-12T20:31:18.502Z,101944.60
2018-10-12T20:33:47.712Z,101942.92
2018-10-12T20:36:18.443Z,101940.99
2018-10-12T20:38:48.653Z,101939.41
2018-10-12T20:41:18.682Z,101935.56
2018-10-12T20:43:48.028Z,101935.33
2018-10-12T20:46:17.076Z,101938.59
2018-10-12T20:48:46.428Z,101939.66
2018-10-12T20:51:15.592Z,101936.15
2018-10-12T20:53:44.934Z,101936.45
2018-10-12T20:56:14.990Z,101939.36
2018-10-12T20:58:44.370Z,101937.02
2018-10-12T21:01:13.498Z,101941.58
2018-10-12T21:03:42.819Z,101944.20
2018-10-12T21:06:11.967Z,101945.79
2018-10-12T21:08:41.689Z,101939.71
2018-10-12T21:11:10.873Z,101943.53
2018-10-12T21:13:41.414Z,101939.31
2018-10-12T21:16:10.735Z,101941.89
2018-10-12T21:18:41.462Z,101936.88
2018-10-12T21:21:10.773Z,101934.48
2018-10-12T21:23:41.909Z,101935.13
2018-10-12T21:26:12.763Z,101939.38
2018-10-12T21:28:41.888Z,101942.27
2018-10-12T21:31:11.103Z,101940.33
2018-10-12T21:33:41.375Z,101932.55
2018-10-12T21:36:10.552Z,101938.36
2018-10-12T21:38:39.842Z,101934.52
2018-10-12T21:41:09.890Z,101930.09
2018-10-12T21:43:39.382Z,101927.94
2018-10-12T21:46:08.873Z,101927.84
2018-10-12T21:48:38.976Z,101928.09
2018-10-12T21:51:08.014Z,101931.48
2018-10-12T21:53:37.275Z,101930.38
2018-10-12T21:56:06.598Z,101930.36
2018-10-12T21:58:35.991Z,101926.98
2018-10-12T22:01:06.083Z,101922.91
2018-10-12T22:03:37.085Z,101926.05
2018-10-12T22:06:06.461Z,101920.63
2018-10-12T22:08:41.561Z,101929.70
2018-10-12T22:11:10.888Z,101926.57
2018-10-12T22:13:40.862Z,101920.88
2018-10-12T22:16:10.032Z,101922.09
2018-10-12T22:18:39.927Z,101919.03
2018-10-12T22:21:09.808Z,101911.63
2018-10-12T22:23:38.928Z,101912.47
2018-10-12T22:26:08.878Z,101907.77
2018-10-12T22:28:40.363Z,101901.55
2018-10-12T22:31:10.096Z,101898.78
2018-10-12T22:33:41.657Z,101897.08
2018-10-12T22:36:10.971Z,101895.11
2018-10-12T22:38:40.011Z,101897.42
2018-10-12T22:41:09.157Z,101867.91
2018-10-12T22:43:39.565Z,101890.67
2018-10-12T22:46:09.682Z,101887.14
2018-10-12T22:48:38.853Z,101894.50
2018-10-12T22:51:07.968Z,101886.39
2018-10-12T22:53:37.558Z,101892.41
2018-10-12T22:56:08.027Z,101895.63
2018-10-12T22:58:37.771Z,101887.09
2018-10-12T23:01:07.872Z,101893.70
2018-10-12T23:03:37.117Z,101886.03
2018-10-12T23:06:07.359Z,101882.43
2018-10-12T23:08:36.404Z,101886.03
2018-10-12T23:11:06.798Z,101885.27
2018-10-12T23:13:37.443Z,101883.56
2018-10-12T23:16:06.809Z,101889.16
2018-10-12T23:18:36.615Z,101906.86
2018-10-12T23:21:05.904Z,101899.23
2018-10-12T23:23:35.631Z,101907.91
2018-10-12T23:26:05.824Z,101905.83
2018-10-12T23:28:35.472Z,101911.73
2018-10-12T23:31:04.540Z,101911.43
2018-10-12T23:33:50.556Z,101919.49
2018-10-12T23:36:20.750Z,101924.03
2018-10-12T23:38:49.823Z,101933.21
2018-10-12T23:41:18.782Z,101928.56
2018-10-12T23:43:48.464Z,101928.67
2018-10-12T23:46:17.671Z,101930.67
2018-10-12T23:48:47.959Z,101927.56
2018-10-12T23:51:17.423Z,101922.92
2018-10-12T23:53:46.925Z,101923.59
2018-10-12T23:56:16.932Z,101917.84
2018-10-12T23:58:46.639Z,101927.52
